createdAt,value
2019-05-06T00:01:41.711Z,8.90
2019-05-06T00:04:14.027Z,9.47
2019-05-06T00:06:46.345Z,8.87
2019-05-06T00:09:17.745Z,8.37
2019-05-06T00:11:49.639Z,8.03
2019-05-06T00:14:23.445Z,7.47
2019-05-06T00:16:55.738Z,6.93
2019-05-06T00:19:27.226Z,7.53
2019-05-06T00:21:58.403Z,7.37
2019-05-06T00:24:31.378Z,7.00
2019-05-06T00:27:04.856Z,7.23
2019-05-06T00:29:36.422Z,7.07
2019-05-06T00:32:07.727Z,7.20
2019-05-06T00:34:38.930Z,7.20
2019-05-06T00:37:11.521Z,7.20
2019-05-06T00:39:44.389Z,7.33
2019-05-06T00:42:18.294Z,5.80
2019-05-06T00:44:50.170Z,6.77
2019-05-06T00:47:21.802Z,6.63
2019-05-06T00:49:54.707Z,4.67
2019-05-06T00:52:27.380Z,5.97
2019-05-06T00:54:59.648Z,5.97
2019-05-06T00:57:34.035Z,6.17
2019-05-06T01:00:06.936Z,5.47
2019-05-06T01:02:39.417Z,6.13
2019-05-06T01:05:10.994Z,6.17
2019-05-06T01:07:44.020Z,5.83
2019-05-06T01:10:17.261Z,6.70
2019-05-06T01:12:50.273Z,6.27
2019-05-06T01:15:25.849Z,7.00
2019-05-06T01:17:59.369Z,7.53
2019-05-06T01:20:33.790Z,7.27
2019-05-06T01:23:04.701Z,5.90
2019-05-06T01:25:35.939Z,6.23
2019-05-06T01:28:07.748Z,5.93
2019-05-06T01:30:39.666Z,5.50
2019-05-06T01:33:11.556Z,6.43
2019-05-06T01:35:44.358Z,5.57
2019-05-06T01:38:18.960Z,5.13
2019-05-06T01:40:54.554Z,6.27
2019-05-06T01:43:27.860Z,6.17
2019-05-06T01:45:59.461Z,5.80
2019-05-06T01:48:33.659Z,5.80
2019-05-06T01:51:05.982Z,5.60
2019-05-06T01:53:38.176Z,5.80
2019-05-06T01:56:09.515Z,6.03
2019-05-06T01:58:40.804Z,6.40
2019-05-06T02:01:12.129Z,6.17
2019-05-06T02:03:44.156Z,5.93
2019-05-06T02:06:16.451Z,6.23
2019-05-06T02:08:48.439Z,5.67
2019-05-06T02:11:20.513Z,5.30
2019-05-06T02:13:53.815Z,5.47
2019-05-06T02:16:26.420Z,5.97
2019-05-06T02:18:59.470Z,7.37
2019-05-06T02:21:30.548Z,6.67
2019-05-06T02:24:04.267Z,6.83
2019-05-06T02:26:36.274Z,5.93
2019-05-06T02:29:09.459Z,5.67
2019-05-06T02:31:42.096Z,5.33
2019-05-06T02:34:15.414Z,5.97
2019-05-06T02:36:47.454Z,5.17
2019-05-06T02:39:18.749Z,5.63
2019-05-06T02:41:49.814Z,5.23
2019-05-06T02:44:23.792Z,5.07
2019-05-06T02:46:56.454Z,5.10
2019-05-06T02:49:29.410Z,4.63
2019-05-06T02:52:03.093Z,5.43
2019-05-06T02:54:34.662Z,4.90
2019-05-06T02:57:07.512Z,5.90
2019-05-06T02:59:39.882Z,5.70
2019-05-06T03:02:13.954Z,4.70
2019-05-06T03:04:45.717Z,5.70
2019-05-06T03:07:16.880Z,5.23
2019-05-06T03:09:48.490Z,6.67
2019-05-06T03:12:22.870Z,8.27
2019-05-06T03:14:53.648Z,8.23
2019-05-06T03:17:28.809Z,7.10
2019-05-06T03:20:04.326Z,6.70
2019-05-06T03:22:37.494Z,7.83
2019-05-06T03:25:13.314Z,6.80
2019-05-06T03:27:46.992Z,6.37
2019-05-06T03:30:19.041Z,6.43
2019-05-06T03:33:23.435Z,6.87
2019-05-06T03:35:36.304Z,5.93
2019-05-06T03:37:59.293Z,7.37
2019-05-06T03:40:36.176Z,7.17
2019-05-06T03:43:05.495Z,6.63
2019-05-06T03:45:38.443Z,6.03
2019-05-06T03:48:12.980Z,6.77
2019-05-06T03:50:44.738Z,6.50
2019-05-06T03:53:16.909Z,6.53
2019-05-06T03:55:53.747Z,6.03
2019-05-06T03:58:26.849Z,6.00
2019-05-06T04:00:59.841Z,5.87
2019-05-06T04:03:44.058Z,5.67
2019-05-06T04:06:05.837Z,5.37
2019-05-06T04:08:37.497Z,5.80
2019-05-06T04:11:13.423Z,7.03
2019-05-06T04:13:49.515Z,6.33
2019-05-06T04:16:23.247Z,6.20
2019-05-06T04:18:57.691Z,6.03
2019-05-06T04:21:32.977Z,6.90
2019-05-06T04:24:04.660Z,5.93
2019-05-06T04:26:38.031Z,6.47
2019-05-06T04:29:12.916Z,7.03
2019-05-06T04:31:43.969Z,9.87
2019-05-06T04:34:19.474Z,12.63
2019-05-06T04:36:48.599Z,14.57
2019-05-06T04:39:23.322Z,17.13
2019-05-06T04:41:54.680Z,20.27
2019-05-06T04:44:26.780Z,20.03
2019-05-06T04:46:59.078Z,19.13
2019-05-06T04:49:33.109Z,18.90
2019-05-06T04:52:06.453Z,17.67
2019-05-06T04:54:38.547Z,16.13
2019-05-06T04:57:12.887Z,13.87
2019-05-06T04:59:46.077Z,14.50
2019-05-06T05:02:18.819Z,14.80
2019-05-06T05:04:52.869Z,14.20
2019-05-06T05:07:24.737Z,13.47
2019-05-06T05:09:58.354Z,12.23
2019-05-06T05:12:33.551Z,13.40
2019-05-06T05:15:06.574Z,12.13
2019-05-06T05:17:42.001Z,12.00
2019-05-06T05:20:13.106Z,13.67
2019-05-06T05:22:48.106Z,13.63
2019-05-06T05:25:19.198Z,15.27
2019-05-06T05:27:52.732Z,33.33
2019-05-06T05:30:25.978Z,34.60
2019-05-06T05:32:58.209Z,59.40
2019-05-06T05:35:32.121Z,62.57
2019-05-06T05:38:03.871Z,28.33
2019-05-06T05:40:36.586Z,28.50
2019-05-06T05:43:11.742Z,31.87
2019-05-06T05:45:44.561Z,30.10
2019-05-06T05:48:19.303Z,72.30
2019-05-06T05:50:52.511Z,30.20
2019-05-06T05:53:26.087Z,10.60
2019-05-06T05:55:58.787Z,7.23
2019-05-06T05:58:33.127Z,6.23
2019-05-06T06:01:04.925Z,4.87
2019-05-06T06:03:37.538Z,3.30
2019-05-06T06:06:12.466Z,4.00
2019-05-06T06:08:44.040Z,3.40
2019-05-06T06:11:18.523Z,2.97
2019-05-06T06:13:52.173Z,3.03
2019-05-06T06:16:23.822Z,3.13
2019-05-06T06:19:03.228Z,2.97
2019-05-06T06:21:32.376Z,3.30
2019-05-06T06:24:05.040Z,3.53
2019-05-06T06:26:37.566Z,4.10
2019-05-06T06:29:09.295Z,4.13
2019-05-06T06:31:42.846Z,5.10
2019-05-06T06:34:16.264Z,6.62
2019-05-06T06:36:49.517Z,6.80
2019-05-06T06:39:24.439Z,7.50
2019-05-06T06:41:56.318Z,6.75
2019-05-06T06:44:29.263Z,6.77
2019-05-06T06:47:02.189Z,8.13
2019-05-06T06:49:35.114Z,6.60
2019-05-06T06:52:11.296Z,6.83
2019-05-06T06:54:44.540Z,5.90
2019-05-06T06:57:19.362Z,4.97
2019-05-06T06:59:53.205Z,5.17
2019-05-06T07:02:26.661Z,4.65
2019-05-06T07:05:02.348Z,3.77
2019-05-06T07:07:43.411Z,4.78
2019-05-06T07:10:12.119Z,4.45
2019-05-06T07:12:43.723Z,4.25
2019-05-06T07:15:15.221Z,4.08
2019-05-06T07:17:46.446Z,4.87
2019-05-06T07:20:22.856Z,4.45
2019-05-06T07:22:54.901Z,3.98
2019-05-06T07:25:26.655Z,4.10
2019-05-06T07:27:59.314Z,4.72
2019-05-06T07:30:32.325Z,4.53
2019-05-06T07:33:06.467Z,4.30
2019-05-06T07:35:41.103Z,4.47
2019-05-06T07:38:12.316Z,4.37
2019-05-06T07:40:47.150Z,5.35
2019-05-06T07:43:22.040Z,4.70
2019-05-06T07:45:55.504Z,4.95
2019-05-06T07:48:28.271Z,5.03
2019-05-06T07:51:03.032Z,5.53
2019-05-06T07:53:34.883Z,4.83
2019-05-06T07:56:07.887Z,5.37
2019-05-06T07:58:43.095Z,5.45
2019-05-06T08:01:16.067Z,5.60
2019-05-06T08:03:49.231Z,5.85
2019-05-06T08:06:22.734Z,6.45
2019-05-06T08:08:56.061Z,5.42
2019-05-06T08:11:27.988Z,5.37
2019-05-06T08:13:59.533Z,5.37
2019-05-06T08:16:32.377Z,5.05
2019-05-06T08:19:05.236Z,4.53
2019-05-06T08:21:38.661Z,4.40
2019-05-06T08:24:11.955Z,4.35
2019-05-06T08:26:43.368Z,3.75
2019-05-06T08:29:16.030Z,2.80
2019-05-06T08:31:49.189Z,3.37
2019-05-06T08:34:22.605Z,3.00
2019-05-06T08:36:56.725Z,3.45
2019-05-06T08:39:29.639Z,3.40
2019-05-06T08:42:02.857Z,4.03
2019-05-06T08:44:35.796Z,3.05
2019-05-06T08:47:08.060Z,3.42
2019-05-06T08:49:42.274Z,4.15
2019-05-06T08:52:15.708Z,4.67
2019-05-06T08:54:48.481Z,4.35
2019-05-06T08:57:19.894Z,4.35
2019-05-06T08:59:51.034Z,2.80
2019-05-06T09:02:24.743Z,3.15
2019-05-06T09:04:55.759Z,3.37
2019-05-06T09:07:27.147Z,3.12
2019-05-06T09:09:59.548Z,3.47
2019-05-06T09:12:32.939Z,2.83
2019-05-06T09:15:06.265Z,2.98
2019-05-06T09:17:37.911Z,4.03
2019-05-06T09:20:09.948Z,2.62
2019-05-06T09:22:43.110Z,2.47
2019-05-06T09:25:16.045Z,3.02
2019-05-06T09:27:47.268Z,2.70
2019-05-06T09:30:23.058Z,4.15
2019-05-06T09:32:55.033Z,2.75
2019-05-06T09:35:27.559Z,2.30
2019-05-06T09:38:02.186Z,3.17
2019-05-06T09:40:34.715Z,2.95
2019-05-06T09:43:07.566Z,2.72
2019-05-06T09:45:38.909Z,2.83
2019-05-06T09:48:12.853Z,3.00
2019-05-06T09:50:46.792Z,2.70
2019-05-06T09:53:23.094Z,2.83
2019-05-06T09:56:03.136Z,2.85
2019-05-06T09:58:36.132Z,2.90
2019-05-06T10:01:09.370Z,2.95
2019-05-06T10:03:42.599Z,2.83
2019-05-06T10:06:14.701Z,2.90
2019-05-06T10:08:46.627Z,3.30
2019-05-06T10:11:18.836Z,3.02
2019-05-06T10:13:52.419Z,3.80
2019-05-06T10:16:24.725Z,2.85
2019-05-06T10:18:56.912Z,2.92
2019-05-06T10:21:32.197Z,2.75
2019-05-06T10:24:03.940Z,2.85
2019-05-06T10:26:37.123Z,3.20
2019-05-06T10:29:08.754Z,4.40
2019-05-06T10:31:43.181Z,4.08
2019-05-06T10:34:14.902Z,3.92
2019-05-06T10:36:50.119Z,3.90
2019-05-06T10:39:26.010Z,3.52
2019-05-06T10:42:03.281Z,3.15
2019-05-06T10:44:38.273Z,3.98
2019-05-06T10:47:12.153Z,4.55
2019-05-06T10:49:43.818Z,4.10
2019-05-06T10:52:16.940Z,3.87
2019-05-06T10:54:48.107Z,3.72
2019-05-06T10:57:22.206Z,3.72
2019-05-06T10:59:54.040Z,3.77
2019-05-06T11:02:28.778Z,3.25
2019-05-06T11:05:02.783Z,3.52
2019-05-06T11:07:35.593Z,3.60
2019-05-06T11:10:20.564Z,3.40
2019-05-06T11:12:43.104Z,3.80
2019-05-06T11:15:16.518Z,4.20
2019-05-06T11:17:49.167Z,3.77
2019-05-06T11:20:24.178Z,4.35
2019-05-06T11:22:55.708Z,4.35
2019-05-06T11:25:28.569Z,3.98
2019-05-06T11:28:02.928Z,3.52
2019-05-06T11:30:37.017Z,4.22
2019-05-06T11:33:13.132Z,4.15
2019-05-06T11:35:46.346Z,4.90
2019-05-06T11:38:19.239Z,3.90
2019-05-06T11:40:52.920Z,4.42
2019-05-06T11:43:25.022Z,4.22
2019-05-06T11:45:57.799Z,4.30
2019-05-06T11:48:32.620Z,4.22
2019-05-06T11:51:05.591Z,3.55
2019-05-06T11:53:39.872Z,3.77
2019-05-06T11:56:12.726Z,3.33
2019-05-06T11:58:46.643Z,3.25
2019-05-06T12:01:21.320Z,3.80
2019-05-06T12:03:53.012Z,3.87
2019-05-06T12:06:26.000Z,3.10
2019-05-06T12:08:58.725Z,3.65
2019-05-06T12:11:31.542Z,2.85
2019-05-06T12:14:04.992Z,3.05
2019-05-06T12:16:38.027Z,4.30
2019-05-06T12:19:09.595Z,4.28
2019-05-06T12:21:43.144Z,4.35
2019-05-06T12:24:15.198Z,3.85
2019-05-06T12:26:46.861Z,3.75
2019-05-06T12:29:20.005Z,3.95
2019-05-06T12:31:53.369Z,4.00
2019-05-06T12:34:26.227Z,3.60
2019-05-06T12:36:59.145Z,3.95
2019-05-06T12:39:33.016Z,3.30
2019-05-06T12:42:06.339Z,11.33
2019-05-06T12:44:39.510Z,4.95
2019-05-06T12:47:13.988Z,3.95
2019-05-06T12:49:45.301Z,3.30
2019-05-06T12:52:17.208Z,190.75
2019-05-06T12:54:48.736Z,189.85
2019-05-06T12:57:23.374Z,148.05
2019-05-06T12:59:54.922Z,169.35
2019-05-06T13:02:32.801Z,66.75
2019-05-06T13:05:04.909Z,16.12
2019-05-06T13:07:37.779Z,3.98
2019-05-06T13:10:09.076Z,3.60
2019-05-06T13:12:42.365Z,4.22
2019-05-06T13:15:13.889Z,3.25
2019-05-06T13:17:45.343Z,6.22
2019-05-06T13:20:17.166Z,3.80
2019-05-06T13:22:53.131Z,2.80
2019-05-06T13:25:23.526Z,2.77
2019-05-06T13:27:55.315Z,3.10
2019-05-06T13:30:28.405Z,2.37
2019-05-06T13:33:04.078Z,3.15
2019-05-06T13:35:36.210Z,3.08
2019-05-06T13:38:08.745Z,2.87
2019-05-06T13:40:53.854Z,3.15
2019-05-06T13:43:16.436Z,4.42
2019-05-06T13:45:52.578Z,3.45
2019-05-06T13:48:25.757Z,2.92
2019-05-06T13:50:58.969Z,3.10
2019-05-06T13:53:39.276Z,2.27
2019-05-06T13:56:05.226Z,2.65
2019-05-06T13:58:38.268Z,1.92
2019-05-06T14:01:11.084Z,4.12
2019-05-06T14:03:45.608Z,2.20
2019-05-06T14:06:18.274Z,2.17
2019-05-06T14:08:49.767Z,2.52
2019-05-06T14:11:23.100Z,2.70
2019-05-06T14:13:54.934Z,1.75
2019-05-06T14:16:26.788Z,2.58
2019-05-06T14:18:58.228Z,2.10
2019-05-06T14:21:32.405Z,2.33
2019-05-06T14:24:05.312Z,2.60
2019-05-06T14:26:44.467Z,2.52
2019-05-06T14:29:15.789Z,5.58
2019-05-06T14:31:48.639Z,2.55
2019-05-06T14:34:23.119Z,2.27
2019-05-06T14:36:54.583Z,2.08
2019-05-06T14:39:47.439Z,2.60
2019-05-06T14:42:03.903Z,2.45
2019-05-06T14:44:33.761Z,2.70
2019-05-06T14:47:08.320Z,2.20
2019-05-06T14:49:39.785Z,4.47
2019-05-06T14:52:13.172Z,2.85
2019-05-06T14:54:47.936Z,2.60
2019-05-06T14:57:22.777Z,2.20
2019-05-06T14:59:55.902Z,3.42
2019-05-06T15:02:28.350Z,3.40
2019-05-06T15:05:02.747Z,4.92
2019-05-06T15:07:35.031Z,2.95
2019-05-06T15:10:19.198Z,3.98
2019-05-06T15:12:42.454Z,2.42
2019-05-06T15:15:15.044Z,3.08
2019-05-06T15:17:47.840Z,3.22
2019-05-06T15:20:19.463Z,2.70
2019-05-06T15:22:53.038Z,3.08
2019-05-06T15:25:26.334Z,2.77
2019-05-06T15:27:59.344Z,2.55
2019-05-06T15:30:34.176Z,2.80
2019-05-06T15:33:08.269Z,3.40
2019-05-06T15:35:42.720Z,3.25
2019-05-06T15:38:16.496Z,2.95
2019-05-06T15:40:48.302Z,2.30
2019-05-06T15:43:19.408Z,3.10
2019-05-06T15:45:52.651Z,2.20
2019-05-06T15:48:24.180Z,2.50
2019-05-06T15:50:57.113Z,2.20
2019-05-06T15:53:33.328Z,3.05
2019-05-06T15:56:04.834Z,2.60
2019-05-06T15:58:38.037Z,3.47
2019-05-06T16:01:09.723Z,3.33
2019-05-06T16:03:43.223Z,2.77
2019-05-06T16:06:16.063Z,2.87
2019-05-06T16:08:47.091Z,3.30
2019-05-06T16:11:19.628Z,2.05
2019-05-06T16:13:53.419Z,2.30
2019-05-06T16:16:25.357Z,2.40
2019-05-06T16:18:58.120Z,2.52
2019-05-06T16:21:29.889Z,2.72
2019-05-06T16:24:04.528Z,5.65
2019-05-06T16:26:36.753Z,8.43
2019-05-06T16:29:08.166Z,13.38
2019-05-06T16:31:42.265Z,24.30
2019-05-06T16:34:14.780Z,7.05
2019-05-06T16:36:47.780Z,2.70
2019-05-06T16:39:19.594Z,2.80
2019-05-06T16:41:52.537Z,3.85
2019-05-06T16:44:25.521Z,2.75
2019-05-06T16:46:57.508Z,3.30
2019-05-06T16:49:29.559Z,2.52
2019-05-06T16:52:02.519Z,3.35
2019-05-06T16:54:35.115Z,2.70
2019-05-06T16:57:08.482Z,2.67
2019-05-06T16:59:42.316Z,2.15
2019-05-06T17:02:14.627Z,2.70
2019-05-06T17:04:47.648Z,3.25
2019-05-06T17:07:22.205Z,3.47
2019-05-06T17:09:54.359Z,1.70
2019-05-06T17:12:27.903Z,2.30
2019-05-06T17:15:01.018Z,2.87
2019-05-06T17:17:43.179Z,27.55
2019-05-06T17:20:07.693Z,3.10
2019-05-06T17:22:39.675Z,3.42
2019-05-06T17:25:11.726Z,4.45
2019-05-06T17:27:57.410Z,6.20
2019-05-06T17:30:35.811Z,2.60
2019-05-06T17:33:09.737Z,3.65
2019-05-06T17:35:42.858Z,2.02
2019-05-06T17:38:16.311Z,2.58
2019-05-06T17:40:48.135Z,2.22
2019-05-06T17:43:19.847Z,2.87
2019-05-06T17:46:03.748Z,3.87
2019-05-06T17:48:35.433Z,3.90
2019-05-06T17:51:08.808Z,4.28
2019-05-06T17:53:43.473Z,6.22
2019-05-06T17:56:15.966Z,7.20
2019-05-06T17:58:53.144Z,7.70
2019-05-06T18:01:26.374Z,4.08
2019-05-06T18:03:58.167Z,3.83
2019-05-06T18:06:32.442Z,5.60
2019-05-06T18:09:04.391Z,6.80
2019-05-06T18:11:38.489Z,8.38
2019-05-06T18:14:13.227Z,14.40
2019-05-06T18:16:44.873Z,33.40
2019-05-06T18:19:16.236Z,15.90
2019-05-06T18:21:48.405Z,16.20
2019-05-06T18:26:52.877Z,11.05
2019-05-06T18:29:25.347Z,11.28
2019-05-06T18:31:57.148Z,11.35
2019-05-06T18:34:28.507Z,11.63
2019-05-06T18:42:13.407Z,14.07
2019-05-06T18:44:35.444Z,11.00
2019-05-06T18:47:06.610Z,11.75
2019-05-06T18:49:38.532Z,11.78
2019-05-06T18:52:13.568Z,4.85
2019-05-06T18:54:45.612Z,4.30
2019-05-06T18:57:17.488Z,4.15
2019-05-06T18:59:50.505Z,3.20
2019-05-06T19:02:22.906Z,5.17
2019-05-06T19:04:56.530Z,6.10
2019-05-06T19:10:03.188Z,4.12
2019-05-06T19:12:41.344Z,5.20
2019-05-06T19:15:12.711Z,3.05
2019-05-06T19:17:44.514Z,3.55
2019-05-06T19:20:16.688Z,3.50
2019-05-06T19:22:48.171Z,3.08
2019-05-06T19:25:26.570Z,3.02
2019-05-06T19:28:04.176Z,5.80
2019-05-06T19:30:35.470Z,7.20
2019-05-06T19:33:07.324Z,12.53
2019-05-06T19:35:40.080Z,14.80
2019-05-06T19:38:12.567Z,16.70
2019-05-06T19:40:44.326Z,18.75
2019-05-06T19:43:18.177Z,18.85
2019-05-06T19:45:50.143Z,16.60
2019-05-06T19:48:24.698Z,13.58
2019-05-06T19:50:55.171Z,13.93
2019-05-06T19:53:38.023Z,10.45
2019-05-06T19:56:16.181Z,8.98
2019-05-06T19:58:48.925Z,6.75
2019-05-06T20:01:22.738Z,5.33
2019-05-06T20:03:54.662Z,4.58
2019-05-06T20:06:28.585Z,5.12
2019-05-06T20:09:03.315Z,4.85
2019-05-06T20:11:36.592Z,4.90
2019-05-06T20:14:08.381Z,6.40
2019-05-06T20:16:41.955Z,6.55
2019-05-06T20:19:27.122Z,6.17
2019-05-06T20:21:46.958Z,8.23
2019-05-06T20:24:18.502Z,7.25
2019-05-06T20:26:52.702Z,5.87
2019-05-06T20:29:24.549Z,4.90
2019-05-06T20:31:56.149Z,4.65
2019-05-06T20:34:38.148Z,5.15
2019-05-06T20:37:17.795Z,5.10
2019-05-06T20:39:49.839Z,5.97
2019-05-06T20:42:23.510Z,6.03
2019-05-06T20:44:57.105Z,5.90
2019-05-06T20:47:28.993Z,5.42
2019-05-06T20:50:08.064Z,5.15
2019-05-06T20:52:39.705Z,6.10
2019-05-06T20:55:15.191Z,4.85
2019-05-06T20:57:45.081Z,5.10
2019-05-06T21:00:17.121Z,5.20
2019-05-06T21:02:49.202Z,5.80
2019-05-06T21:05:22.781Z,5.83
2019-05-06T21:07:54.158Z,6.17
2019-05-06T21:10:28.115Z,6.72
2019-05-06T21:12:59.477Z,7.05
2019-05-06T21:15:32.359Z,8.18
2019-05-06T21:18:04.517Z,7.30
2019-05-06T21:20:37.937Z,10.05
2019-05-06T21:23:11.088Z,7.58
2019-05-06T21:25:43.169Z,8.70
2019-05-06T21:28:15.489Z,8.20
2019-05-06T21:30:47.618Z,8.73
2019-05-06T21:33:22.126Z,9.00
2019-05-06T21:35:54.690Z,9.15
2019-05-06T21:38:26.421Z,9.73
2019-05-06T21:40:57.552Z,7.47
2019-05-06T21:43:42.237Z,8.57
2019-05-06T21:46:02.506Z,8.00
2019-05-06T21:48:35.616Z,8.50
2019-05-06T21:51:07.342Z,9.40
2019-05-06T21:53:40.596Z,9.90
2019-05-06T21:56:13.086Z,11.80
2019-05-06T21:58:45.895Z,17.35
2019-05-06T22:01:19.668Z,19.57
2019-05-06T22:03:52.355Z,29.93
2019-05-06T22:06:24.581Z,25.07
2019-05-06T22:08:58.066Z,19.40
2019-05-06T22:11:29.604Z,11.10
2019-05-06T22:14:01.836Z,13.05
2019-05-06T22:16:33.808Z,8.55
2019-05-06T22:19:05.886Z,8.68
2019-05-06T22:21:38.608Z,8.15
2019-05-06T22:24:12.104Z,16.50
2019-05-06T22:26:43.946Z,10.93
2019-05-06T22:29:16.405Z,8.35
2019-05-06T22:31:48.179Z,7.75
2019-05-06T22:34:22.103Z,7.05
2019-05-06T22:36:54.303Z,7.42
2019-05-06T22:39:27.170Z,7.00
2019-05-06T22:41:58.455Z,7.72
2019-05-06T22:44:32.336Z,8.55
2019-05-06T22:47:04.081Z,9.77
2019-05-06T22:49:35.247Z,8.35
2019-05-06T22:52:07.714Z,7.70
2019-05-06T22:54:39.922Z,10.75
2019-05-06T22:57:13.159Z,8.90
2019-05-06T22:59:45.060Z,7.70
2019-05-06T23:02:17.975Z,9.30
2019-05-06T23:04:52.989Z,6.90
2019-05-06T23:07:24.439Z,8.10
2019-05-06T23:09:56.359Z,9.87
2019-05-06T23:12:27.821Z,9.60
2019-05-06T23:14:59.240Z,11.10
2019-05-06T23:17:34.267Z,11.30
2019-05-06T23:20:07.401Z,11.13
2019-05-06T23:22:40.207Z,11.47
2019-05-06T23:25:13.577Z,11.00
2019-05-06T23:27:46.303Z,12.10
2019-05-06T23:30:19.241Z,12.03
2019-05-06T23:32:52.928Z,10.33
2019-05-06T23:35:24.917Z,9.77
2019-05-06T23:37:59.333Z,15.43
2019-05-06T23:40:35.859Z,14.00
2019-05-06T23:43:12.644Z,12.70
2019-05-06T23:45:47.506Z,11.57
2019-05-06T23:48:22.856Z,12.17
2019-05-06T23:50:57.719Z,13.23
2019-05-06T23:53:33.121Z,11.97
2019-05-06T23:56:08.568Z,10.57
2019-05-06T23:58:40.329Z,8.93
